sensor_id;sensor_type;location;lat;lon;timestamp;temperature;humidity
71551;DHT22;59367;48.414;9.872;2022-11-20T00:00:11;9.528114319;61.66229248
71551;DHT22;59367;48.414;9.872;2022-11-20T00:01:19;9.485389709;61.62261963
71551;DHT22;59367;48.414;9.872;2022-11-20T00:02:25;9.485389709;61.378479
71551;DHT22;59367;48.414;9.872;2022-11-20T00:03:30;9.458686829;61.07177734
71551;DHT22;59367;48.414;9.872;2022-11-20T00:04:35;9.42931366;61.05499268
71551;DHT22;59367;48.414;9.872;2022-11-20T00:05:41;9.4426651;61.07635498
71551;DHT22;59367;48.414;9.872;2022-11-20T00:06:46;9.38658905;61.09008789
71551;DHT22;59367;48.414;9.872;2022-11-20T00:07:51;9.359882355;61.18621826
71551;DHT22;59367;48.414;9.872;2022-11-20T00:08:59;9.330509186;61.40594482
71551;DHT22;59367;48.414;9.872;2022-11-20T00:10:05;9.303806305;61.60430908
71551;DHT22;59367;48.414;9.872;2022-11-20T00:11:12;9.274433136;61.69433594
71551;DHT22;59367;48.414;9.872;2022-11-20T00:12:18;9.218357086;61.65466309
71551;DHT22;59367;48.414;9.872;2022-11-20T00:13:23;9.218357086;61.72637939
71551;DHT22;59367;48.414;9.872;2022-11-20T00:14:28;9.175632477;62.22686768
71551;DHT22;59367;48.414;9.872;2022-11-20T00:15:34;9.132907867;62.3626709
71551;DHT22;59367;48.414;9.872;2022-11-20T00:16:39;9.119552612;62.58392334
71551;DHT22;59367;48.414;9.872;2022-11-20T00:17:44;9.092849731;62.70141602
71551;DHT22;59367;48.414;9.872;2022-11-20T00:18:49;9.092849731;62.85400391
71551;DHT22;59367;48.414;9.872;2022-11-20T00:19:55;9.050125122;62.77618408
71551;DHT22;59367;48.414;9.872;2022-11-20T00:21:05;9.050125122;62.76702881
71551;DHT22;59367;48.414;9.872;2022-11-20T00:22:12;9.007400513;62.68768311
71551;DHT22;59367;48.414;9.872;2022-11-20T00:23:17;9.007400513;62.78991699
71551;DHT22;59367;48.414;9.872;2022-11-20T00:24:23;8.994049072;62.98065186
71551;DHT22;59367;48.414;9.872;2022-11-20T00:25:28;8.978027344;62.9989624
71551;DHT22;59367;48.414;9.872;2022-11-20T00:26:33;8.978027344;62.91809082
71551;DHT22;59367;48.414;9.872;2022-11-20T00:27:39;8.951324463;63.12713623
71551;DHT22;59367;48.414;9.872;2022-11-20T00:28:48;8.921951294;63.13171387
71551;DHT22;59367;48.414;9.872;2022-11-20T00:29:54;8.908599854;63.22021484
71551;DHT22;59367;48.414;9.872;2022-11-20T00:31:06;8.879226685;63.32855225
71551;DHT22;59367;48.414;9.872;2022-11-20T00:32:11;8.865871429;63.43841553
71551;DHT22;59367;48.414;9.872;2022-11-20T00:33:16;8.865871429;63.4979248
71551;DHT22;59367;48.414;9.872;2022-11-20T00:34:21;8.852519989;63.43536377
71551;DHT22;59367;48.414;9.872;2022-11-20T00:35:27;8.839168549;63.25073242
71551;DHT22;59367;48.414;9.872;2022-11-20T00:36:35;8.820476532;63.15612793
71551;DHT22;59367;48.414;9.872;2022-11-20T00:37:41;8.764400482;63.06762695
71551;DHT22;59367;48.414;9.872;2022-11-20T00:38:47;8.777751923;63.06915283
71551;DHT22;59367;48.414;9.872;2022-11-20T00:39:52;8.777751923;63.10882568
71551;DHT22;59367;48.414;9.872;2022-11-20T00:40:59;8.737697601;62.90893555
71551;DHT22;59367;48.414;9.872;2022-11-20T00:42:05;8.708324432;62.7532959
71551;DHT22;59367;48.414;9.872;2022-11-20T00:43:10;8.721675873;62.91809082
71551;DHT22;59367;48.414;9.872;2022-11-20T00:44:16;8.681621552;63.02337646
71551;DHT22;59367;48.414;9.872;2022-11-20T00:45:21;8.665599823;62.91809082
71551;DHT22;59367;48.414;9.872;2022-11-20T00:46:27;8.609519958;62.890625
71551;DHT22;59367;48.414;9.872;2022-11-20T00:47:32;8.596168518;62.96844482
71551;DHT22;59367;48.414;9.872;2022-11-20T00:48:38;8.566795349;62.82196045
71551;DHT22;59367;48.414;9.872;2022-11-20T00:49:44;8.540092468;62.80822754
71551;DHT22;59367;48.414;9.872;2022-11-20T00:50:51;8.510719299;62.94555664
71551;DHT22;59367;48.414;9.872;2022-11-20T00:51:57;8.484016418;62.82958984
71551;DHT22;59367;48.414;9.872;2022-11-20T00:53:03;8.427940369;62.78991699
71551;DHT22;59367;48.414;9.872;2022-11-20T00:54:09;8.441291809;62.68920898
71551;DHT22;59367;48.414;9.872;2022-11-20T00:55:15;8.41191864;62.45422363
71551;DHT22;59367;48.414;9.872;2022-11-20T00:56:21;8.371860504;62.46795654
71551;DHT22;59367;48.414;9.872;2022-11-20T00:57:28;8.342487335;62.40081787
71551;DHT22;59367;48.414;9.872;2022-11-20T00:58:36;8.273059845;62.24822998
71551;DHT22;59367;48.414;9.872;2022-11-20T00:59:41;8.243686676;62.19329834
71551;DHT22;59367;48.414;9.872;2022-11-20T01:00:47;8.200962067;62.12615967
71551;DHT22;59367;48.414;9.872;2022-11-20T01:01:52;8.187610626;61.84997559
71551;DHT22;59367;48.414;9.872;2022-11-20T01:02:58;8.144886017;62.11700439
71551;DHT22;59367;48.414;9.872;2022-11-20T01:04:04;8.118179321;62.3260498
71551;DHT22;59367;48.414;9.872;2022-11-20T01:05:10;8.032730103;62.43286133
71551;DHT22;59367;48.414;9.872;2022-11-20T01:06:17;8.003356934;62.58239746
71551;DHT22;59367;48.414;9.872;2022-11-20T01:07:23;7.933929443;62.70141602
71551;DHT22;59367;48.414;9.872;2022-11-20T01:08:32;7.933929443;62.96691895
71551;DHT22;59367;48.414;9.872;2022-11-20T01:09:38;7.904556274;62.67547607
71551;DHT22;59367;48.414;9.872;2022-11-20T01:10:43;7.84847641;62.72888184
71551;DHT22;59367;48.414;9.872;2022-11-20T01:11:48;7.835124969;62.7166748
71551;DHT22;59367;48.414;9.872;2022-11-20T01:12:54;7.808422089;62.59155273
71551;DHT22;59367;48.414;9.872;2022-11-20T01:14:00;7.808422089;62.57019043
71551;DHT22;59367;48.414;9.872;2022-11-20T01:15:07;7.765697479;62.56408691
71551;DHT22;59367;48.414;9.872;2022-11-20T01:16:14;7.706951141;62.7166748
71551;DHT22;59367;48.414;9.872;2022-11-20T01:17:20;7.706951141;62.72583008
71551;DHT22;59367;48.414;9.872;2022-11-20T01:18:26;7.634853363;62.82653809
71551;DHT22;59367;48.414;9.872;2022-11-20T01:19:31;7.621498108;62.96691895
71551;DHT22;59367;48.414;9.872;2022-11-20T01:20:39;7.621498108;62.92572021
71551;DHT22;59367;48.414;9.872;2022-11-20T01:21:45;7.578773499;62.83874512
71551;DHT22;59367;48.414;9.872;2022-11-20T01:22:51;7.536048889;63.01422119
71551;DHT22;59367;48.414;9.872;2022-11-20T01:23:58;7.495994568;63.23852539
71551;DHT22;59367;48.414;9.872;2022-11-20T01:25:03;7.466621399;63.41705322
71551;DHT22;59367;48.414;9.872;2022-11-20T01:26:11;7.43724823;63.46282959
71551;DHT22;59367;48.414;9.872;2022-11-20T01:27:16;7.410545349;63.47961426
71551;DHT22;59367;48.414;9.872;2022-11-20T01:28:21;7.42389679;63.71459961
71551;DHT22;59367;48.414;9.872;2022-11-20T01:29:27;7.38117218;63.74664307
71551;DHT22;59367;48.414;9.872;2022-11-20T01:30:32;7.354465485;63.68103027
71551;DHT22;59367;48.414;9.872;2022-11-20T01:31:39;7.325092316;63.76800537
71551;DHT22;59367;48.414;9.872;2022-11-20T01:32:44;7.298389435;63.8961792
71551;DHT22;59367;48.414;9.872;2022-11-20T01:33:50;7.298389435;63.72375488
71551;DHT22;59367;48.414;9.872;2022-11-20T01:34:56;7.255664825;63.8092041
71551;DHT22;59367;48.414;9.872;2022-11-20T01:36:09;7.255664825;64.01977539
71551;DHT22;59367;48.414;9.872;2022-11-20T01:37:15;7.242313385;63.8458252
71551;DHT22;59367;48.414;9.872;2022-11-20T01:38:20;7.212940216;63.92059326
71551;DHT22;59367;48.414;9.872;2022-11-20T01:39:27;7.199588776;64.09912109
71551;DHT22;59367;48.414;9.872;2022-11-20T01:40:32;7.183567047;63.98773193
71551;DHT22;59367;48.414;9.872;2022-11-20T01:41:37;7.156864166;63.78173828
71551;DHT22;59367;48.414;9.872;2022-11-20T01:42:51;7.127490997;63.64440918
71551;DHT22;59367;48.414;9.872;2022-11-20T01:43:58;7.100784302;63.64135742
71551;DHT22;59367;48.414;9.872;2022-11-20T01:46:39;7.044708252;63.7512207
71551;DHT22;59367;48.414;9.872;2022-11-20T01:47:48;7.001983643;63.66424561
71551;DHT22;59367;48.414;9.872;2022-11-20T01:48:56;6.972610474;63.69018555
71551;DHT22;59367;48.414;9.872;2022-11-20T01:50:09;6.945907593;63.77716064
71551;DHT22;59367;48.414;9.872;2022-11-20T01:51:21;6.945907593;63.74664307
71551;DHT22;59367;48.414;9.872;2022-11-20T01:52:30;6.916534424;63.88397217
71551;DHT22;59367;48.414;9.872;2022-11-20T01:53:39;6.889831543;63.80004883
71551;DHT22;59367;48.414;9.872;2022-11-20T01:54:50;6.889831543;63.7588501
71551;DHT22;59367;48.414;9.872;2022-11-20T01:56:00;6.847103119;63.76037598
71551;DHT22;59367;48.414;9.872;2022-11-20T01:57:08;6.833751678;63.79089355
71551;DHT22;59367;48.414;9.872;2022-11-20T01:58:16;6.80437851;63.66271973
71551;DHT22;59367;48.414;9.872;2022-11-20T01:59:27;6.777675629;63.66882324
71551;DHT22;59367;48.414;9.872;2022-11-20T02:00:34;6.74830246;63.79547119
71551;DHT22;59367;48.414;9.872;2022-11-20T02:01:41;6.69222641;63.97857666
71551;DHT22;59367;48.414;9.872;2022-11-20T02:02:49;6.678874969;64.10675049
71551;DHT22;59367;48.414;9.872;2022-11-20T02:03:56;6.69222641;64.1494751
71551;DHT22;59367;48.414;9.872;2022-11-20T02:05:08;6.662853241;64.20440674
71551;DHT22;59367;48.414;9.872;2022-11-20T02:06:19;6.622795105;64.00604248
71551;DHT22;59367;48.414;9.872;2022-11-20T02:07:26;6.590751648;64.0335083
71551;DHT22;59367;48.414;9.872;2022-11-20T02:08:31;6.604103088;64.32800293
71551;DHT22;59367;48.414;9.872;2022-11-20T02:09:37;6.604103088;64.37835693
71551;DHT22;59367;48.414;9.872;2022-11-20T02:10:43;6.590751648;64.112854
71551;DHT22;59367;48.414;9.872;2022-11-20T02:11:48;6.534675598;63.95263672
71551;DHT22;59367;48.414;9.872;2022-11-20T02:12:54;6.548027039;63.88397217
71551;DHT22;59367;48.414;9.872;2022-11-20T02:14:00;6.534675598;63.84124756
71551;DHT22;59367;48.414;9.872;2022-11-20T02:15:07;6.491950989;63.62304688
71551;DHT22;59367;48.414;9.872;2022-11-20T02:16:16;6.478599548;63.71307373
71551;DHT22;59367;48.414;9.872;2022-11-20T02:17:25;6.449226379;63.46588135
71551;DHT22;59367;48.414;9.872;2022-11-20T02:18:32;6.435874939;63.49334717
71551;DHT22;59367;48.414;9.872;2022-11-20T02:19:38;6.40650177;63.42926025
71551;DHT22;59367;48.414;9.872;2022-11-20T02:20:46;6.40650177;63.53912354
71551;DHT22;59367;48.414;9.872;2022-11-20T02:21:59;6.40650177;63.69018555
71551;DHT22;59367;48.414;9.872;2022-11-20T02:23:08;6.366443634;63.8961792
71551;DHT22;59367;48.414;9.872;2022-11-20T02:24:17;6.337070465;63.99230957
71551;DHT22;59367;48.414;9.872;2022-11-20T02:25:24;6.307697296;63.9251709
71551;DHT22;59367;48.414;9.872;2022-11-20T02:26:33;6.280994415;64.00146484
71551;DHT22;59367;48.414;9.872;2022-11-20T02:27:40;6.267642975;63.98010254
71551;DHT22;59367;48.414;9.872;2022-11-20T02:28:45;6.251621246;64.23034668
71551;DHT22;59367;48.414;9.872;2022-11-20T02:29:55;6.251621246;64.36920166
71551;DHT22;59367;48.414;9.872;2022-11-20T02:31:02;6.224918365;64.37683105
71551;DHT22;59367;48.414;9.872;2022-11-20T02:32:10;6.211566925;64.3737793
71551;DHT22;59367;48.414;9.872;2022-11-20T02:33:22;6.195545197;64.73388672
71551;DHT22;59367;48.414;9.872;2022-11-20T02:34:28;6.139469147;65.45410156
71551;DHT22;59367;48.414;9.872;2022-11-20T02:35:47;6.182193756;65.80657959
71551;DHT22;59367;48.414;9.872;2022-11-20T02:36:54;6.152820587;66.12701416
71551;DHT22;59367;48.414;9.872;2022-11-20T02:38:03;6.152820587;66.3772583
71551;DHT22;59367;48.414;9.872;2022-11-20T02:39:09;6.152820587;66.51000977
71551;DHT22;59367;48.414;9.872;2022-11-20T02:40:17;6.152820587;66.63513184
71551;DHT22;59367;48.414;9.872;2022-11-20T02:41:23;6.168842316;66.78009033
71551;DHT22;59367;48.414;9.872;2022-11-20T02:42:35;6.182193756;66.61987305
71551;DHT22;59367;48.414;9.872;2022-11-20T02:43:41;6.182193756;66.73583984
71551;DHT22;59367;48.414;9.872;2022-11-20T02:44:47;6.182193756;66.89605713
71551;DHT22;59367;48.414;9.872;2022-11-20T02:45:52;6.195545197;67.14782715
71551;DHT22;59367;48.414;9.872;2022-11-20T02:46:59;6.195545197;67.38891602
71551;DHT22;59367;48.414;9.872;2022-11-20T02:48:05;6.152820587;67.37060547
71551;DHT22;59367;48.414;9.872;2022-11-20T02:49:11;6.195545197;67.34924316
71551;DHT22;59367;48.414;9.872;2022-11-20T02:50:17;6.224918365;67.26989746
71551;DHT22;59367;48.414;9.872;2022-11-20T02:51:23;6.224918365;67.12493896
71551;DHT22;59367;48.414;9.872;2022-11-20T02:52:29;6.224918365;66.92352295
71551;DHT22;59367;48.414;9.872;2022-11-20T02:53:35;6.224918365;66.82128906
71551;DHT22;59367;48.414;9.872;2022-11-20T02:54:41;6.251621246;66.56494141
71551;DHT22;59367;48.414;9.872;2022-11-20T02:55:47;6.224918365;66.3192749
71551;DHT22;59367;48.414;9.872;2022-11-20T02:56:52;6.280994415;65.9286499
71551;DHT22;59367;48.414;9.872;2022-11-20T02:57:59;6.251621246;65.82794189
71551;DHT22;59367;48.414;9.872;2022-11-20T02:59:06;6.251621246;65.56854248
71551;DHT22;59367;48.414;9.872;2022-11-20T03:01:20;6.251621246;65.04211426
71551;DHT22;59367;48.414;9.872;2022-11-20T03:02:27;6.238269806;64.97192383
71551;DHT22;59367;48.414;9.872;2022-11-20T03:03:35;6.195545197;64.95513916
71551;DHT22;59367;48.414;9.872;2022-11-20T03:04:42;6.195545197;65.57769775
71551;DHT22;59367;48.414;9.872;2022-11-20T03:05:49;6.211566925;66.04919434
71551;DHT22;59367;48.414;9.872;2022-11-20T03:06:56;6.195545197;66.05834961
71551;DHT22;59367;48.414;9.872;2022-11-20T03:08:02;6.224918365;66.11175537
71551;DHT22;59367;48.414;9.872;2022-11-20T03:09:08;6.182193756;66.12243652
71551;DHT22;59367;48.414;9.872;2022-11-20T03:10:14;6.168842316;66.04309082
71551;DHT22;59367;48.414;9.872;2022-11-20T03:11:20;6.182193756;66.24603271
71551;DHT22;59367;48.414;9.872;2022-11-20T03:12:26;6.168842316;66.34979248
71551;DHT22;59367;48.414;9.872;2022-11-20T03:13:33;6.139469147;66.39251709
71551;DHT22;59367;48.414;9.872;2022-11-20T03:14:39;6.168842316;66.32232666
71551;DHT22;59367;48.414;9.872;2022-11-20T03:15:45;6.182193756;66.34216309
71551;DHT22;59367;48.414;9.872;2022-11-20T03:16:51;6.168842316;66.36962891
71551;DHT22;59367;48.414;9.872;2022-11-20T03:17:58;6.182193756;66.26434326
71551;DHT22;59367;48.414;9.872;2022-11-20T03:19:04;6.152820587;66.00189209
71551;DHT22;59367;48.414;9.872;2022-11-20T03:20:11;6.168842316;65.79284668
71551;DHT22;59367;48.414;9.872;2022-11-20T03:21:18;6.182193756;65.68145752
71551;DHT22;59367;48.414;9.872;2022-11-20T03:22:24;6.152820587;65.66772461
71551;DHT22;59367;48.414;9.872;2022-11-20T03:23:31;6.112762451;65.8416748
71551;DHT22;59367;48.414;9.872;2022-11-20T03:24:37;6.040664673;66.43371582
71551;DHT22;59367;48.414;9.872;2022-11-20T03:25:43;6.027313232;66.83197021
71551;DHT22;59367;48.414;9.872;2022-11-20T03:26:48;5.997940063;67.01965332
71551;DHT22;59367;48.414;9.872;2022-11-20T03:27:54;6.013961792;67.08831787
71551;DHT22;59367;48.414;9.872;2022-11-20T03:29:02;6.027313232;67.10968018
71551;DHT22;59367;48.414;9.872;2022-11-20T03:30:09;5.997940063;67.12493896
71551;DHT22;59367;48.414;9.872;2022-11-20T03:31:17;6.040664673;66.93115234
71551;DHT22;59367;48.414;9.872;2022-11-20T03:32:23;6.027313232;66.56494141
71551;DHT22;59367;48.414;9.872;2022-11-20T03:33:34;6.056686401;66.30096436
71551;DHT22;59367;48.414;9.872;2022-11-20T03:34:40;6.040664673;66.355896
71551;DHT22;59367;48.414;9.872;2022-11-20T03:35:47;6.040664673;66.20330811
71551;DHT22;59367;48.414;9.872;2022-11-20T03:36:53;6.027313232;65.85540771
71551;DHT22;59367;48.414;9.872;2022-11-20T03:38:00;6.013961792;65.48919678
71551;DHT22;59367;48.414;9.872;2022-11-20T03:39:06;5.971237183;65.33966064
71551;DHT22;59367;48.414;9.872;2022-11-20T03:40:13;5.984588623;65.15045166
71551;DHT22;59367;48.414;9.872;2022-11-20T03:41:20;5.984588623;65.10162354
71551;DHT22;59367;48.414;9.872;2022-11-20T03:42:26;5.984588623;65.10162354
71551;DHT22;59367;48.414;9.872;2022-11-20T03:43:33;5.971237183;64.90936279
71551;DHT22;59367;48.414;9.872;2022-11-20T03:44:38;5.928512573;64.82543945
71551;DHT22;59367;48.414;9.872;2022-11-20T03:45:45;5.885787964;64.76135254
71551;DHT22;59367;48.414;9.872;2022-11-20T03:46:51;5.901809692;64.64385986
71551;DHT22;59367;48.414;9.872;2022-11-20T03:47:56;5.872432709;64.81628418
71551;DHT22;59367;48.414;9.872;2022-11-20T03:49:03;5.872432709;64.80712891
71551;DHT22;59367;48.414;9.872;2022-11-20T03:50:11;5.816356659;64.84527588
71551;DHT22;59367;48.414;9.872;2022-11-20T03:51:19;5.78698349;64.89562988
71551;DHT22;59367;48.414;9.872;2022-11-20T03:52:25;5.77363205;64.96276855
71551;DHT22;59367;48.414;9.872;2022-11-20T03:53:31;5.746929169;65.06347656
71551;DHT22;59367;48.414;9.872;2022-11-20T03:54:37;5.760280609;65.22827148
71551;DHT22;59367;48.414;9.872;2022-11-20T03:55:44;5.704204559;65.38085938
71551;DHT22;59367;48.414;9.872;2022-11-20T03:56:50;5.688182831;65.34881592
71551;DHT22;59367;48.414;9.872;2022-11-20T03:57:56;5.704204559;65.37017822
71551;DHT22;59367;48.414;9.872;2022-11-20T03:59:03;5.67483139;65.35644531
71551;DHT22;59367;48.414;9.872;2022-11-20T04:00:10;5.66147995;65.33508301
71551;DHT22;59367;48.414;9.872;2022-11-20T04:01:18;5.66147995;65.32592773
71551;DHT22;59367;48.414;9.872;2022-11-20T04:02:25;5.632106781;65.46325684
71551;DHT22;59367;48.414;9.872;2022-11-20T04:03:32;5.618751526;65.69213867
71551;DHT22;59367;48.414;9.872;2022-11-20T04:04:39;5.605400085;65.58227539
71551;DHT22;59367;48.414;9.872;2022-11-20T04:05:46;5.592048645;65.47698975
71551;DHT22;59367;48.414;9.872;2022-11-20T04:06:54;5.576026917;65.53955078
71551;DHT22;59367;48.414;9.872;2022-11-20T04:08:01;5.546653748;65.58532715
71551;DHT22;59367;48.414;9.872;2022-11-20T04:09:08;5.530632019;65.58074951
71551;DHT22;59367;48.414;9.872;2022-11-20T04:10:16;5.530632019;65.56243896
71551;DHT22;59367;48.414;9.872;2022-11-20T04:11:24;5.530632019;65.53192139
71551;DHT22;59367;48.414;9.872;2022-11-20T04:12:34;5.503929138;65.45257568
71551;DHT22;59367;48.414;9.872;2022-11-20T04:13:41;5.490577698;65.56396484
71551;DHT22;59367;48.414;9.872;2022-11-20T04:14:47;5.517280579;65.46325684
71551;DHT22;59367;48.414;9.872;2022-11-20T04:15:53;5.474555969;65.3213501
71551;DHT22;59367;48.414;9.872;2022-11-20T04:17:03;5.447853088;65.31677246
71551;DHT22;59367;48.414;9.872;2022-11-20T04:18:09;5.474555969;65.30303955
71551;DHT22;59367;48.414;9.872;2022-11-20T04:19:16;5.43183136;65.35339355
71551;DHT22;59367;48.414;9.872;2022-11-20T04:20:23;5.418479919;65.45715332
71551;DHT22;59367;48.414;9.872;2022-11-20T04:21:29;5.418479919;65.45715332
71551;DHT22;59367;48.414;9.872;2022-11-20T04:22:35;5.391777039;65.46173096
71551;DHT22;59367;48.414;9.872;2022-11-20T04:23:41;5.391777039;65.47088623
71551;DHT22;59367;48.414;9.872;2022-11-20T04:24:48;5.349048615;65.46325684
71551;DHT22;59367;48.414;9.872;2022-11-20T04:25:54;5.335697174;65.47241211
71551;DHT22;59367;48.414;9.872;2022-11-20T04:27:00;5.306324005;65.52581787
71551;DHT22;59367;48.414;9.872;2022-11-20T04:28:06;5.306324005;65.57159424
71551;DHT22;59367;48.414;9.872;2022-11-20T04:29:15;5.306324005;65.46630859
71551;DHT22;59367;48.414;9.872;2022-11-20T04:30:21;5.292972565;65.17028809
71551;DHT22;59367;48.414;9.872;2022-11-20T04:31:29;5.276950836;65.02227783
71551;DHT22;59367;48.414;9.872;2022-11-20T04:32:35;5.276950836;64.76593018
71551;DHT22;59367;48.414;9.872;2022-11-20T04:33:42;5.250247955;64.75219727
71551;DHT22;59367;48.414;9.872;2022-11-20T04:34:48;5.236896515;64.79797363
71551;DHT22;59367;48.414;9.872;2022-11-20T04:35:55;5.194171906;64.84527588
71551;DHT22;59367;48.414;9.872;2022-11-20T04:37:01;5.194171906;64.91394043
71551;DHT22;59367;48.414;9.872;2022-11-20T04:38:07;5.180820465;65.24658203
71551;DHT22;59367;48.414;9.872;2022-11-20T04:39:17;5.164798737;65.43426514
71551;DHT22;59367;48.414;9.872;2022-11-20T04:40:23;5.138095856;65.35186768
71551;DHT22;59367;48.414;9.872;2022-11-20T04:41:31;5.122070313;65.45715332
71551;DHT22;59367;48.414;9.872;2022-11-20T04:42:38;5.138095856;65.29693604
71551;DHT22;59367;48.414;9.872;2022-11-20T04:43:45;5.108718872;65.28015137
71551;DHT22;59367;48.414;9.872;2022-11-20T04:44:52;5.095367432;65.21148682
71551;DHT22;59367;48.414;9.872;2022-11-20T04:46:00;5.095367432;65.17486572
71551;DHT22;59367;48.414;9.872;2022-11-20T04:47:06;5.052642822;65.10925293
71551;DHT22;59367;48.414;9.872;2022-11-20T04:48:13;5.052642822;65.08178711
71551;DHT22;59367;48.414;9.872;2022-11-20T04:49:19;5.025939941;65.08331299
71551;DHT22;59367;48.414;9.872;2022-11-20T04:50:25;5.025939941;65.36102295
71551;DHT22;59367;48.414;9.872;2022-11-20T04:51:31;5.039291382;65.50750732
71551;DHT22;59367;48.414;9.872;2022-11-20T04:52:38;5.009918213;65.57769775
71551;DHT22;59367;48.414;9.872;2022-11-20T04:53:44;5.009918213;65.65551758
71551;DHT22;59367;48.414;9.872;2022-11-20T04:54:51;5.025939941;65.55328369
71551;DHT22;59367;48.414;9.872;2022-11-20T04:56:02;5.009918213;65.35797119
71551;DHT22;59367;48.414;9.872;2022-11-20T04:57:09;4.996566772;65.47241211
71551;DHT22;59367;48.414;9.872;2022-11-20T04:58:16;5.009918213;65.53039551
71551;DHT22;59367;48.414;9.872;2022-11-20T04:59:22;5.025939941;65.64941406
71551;DHT22;59367;48.414;9.872;2022-11-20T05:00:29;4.983215332;65.93780518
71551;DHT22;59367;48.414;9.872;2022-11-20T05:01:34;4.996566772;66.24450684
71551;DHT22;59367;48.414;9.872;2022-11-20T05:02:40;5.025939941;66.12548828
71551;DHT22;59367;48.414;9.872;2022-11-20T05:03:47;4.996566772;66.06292725
71551;DHT22;59367;48.414;9.872;2022-11-20T05:04:54;5.009918213;66.07513428
71551;DHT22;59367;48.414;9.872;2022-11-20T05:06:03;5.025939941;65.94390869
71551;DHT22;59367;48.414;9.872;2022-11-20T05:07:10;5.025939941;65.87524414
71551;DHT22;59367;48.414;9.872;2022-11-20T05:08:18;5.025939941;65.94390869
71551;DHT22;59367;48.414;9.872;2022-11-20T05:09:25;5.052642822;66.04309082
71551;DHT22;59367;48.414;9.872;2022-11-20T05:10:32;5.025939941;66.1529541
71551;DHT22;59367;48.414;9.872;2022-11-20T05:11:39;5.039291382;66.20330811
71551;DHT22;59367;48.414;9.872;2022-11-20T05:12:46;5.052642822;66.1026001
71551;DHT22;59367;48.414;9.872;2022-11-20T05:13:54;5.052642822;65.91186523
71551;DHT22;59367;48.414;9.872;2022-11-20T05:15:01;5.052642822;65.73791504
71551;DHT22;59367;48.414;9.872;2022-11-20T05:16:09;5.039291382;65.72723389
71551;DHT22;59367;48.414;9.872;2022-11-20T05:17:17;5.039291382;65.63262939
71551;DHT22;59367;48.414;9.872;2022-11-20T05:18:23;5.052642822;65.34729004
71551;DHT22;59367;48.414;9.872;2022-11-20T05:19:30;5.065994263;65.45410156
71551;DHT22;59367;48.414;9.872;2022-11-20T05:20:36;5.025939941;65.42053223
71551;DHT22;59367;48.414;9.872;2022-11-20T05:21:42;5.025939941;65.32440186
71551;DHT22;59367;48.414;9.872;2022-11-20T05:22:48;4.996566772;65.41595459
71551;DHT22;59367;48.414;9.872;2022-11-20T05:23:55;5.025939941;65.38085938
71551;DHT22;59367;48.414;9.872;2022-11-20T05:25:01;4.996566772;65.43426514
71551;DHT22;59367;48.414;9.872;2022-11-20T05:26:12;5.009918213;65.45410156
71551;DHT22;59367;48.414;9.872;2022-11-20T05:27:18;4.983215332;65.38391113
71551;DHT22;59367;48.414;9.872;2022-11-20T05:28:24;4.983215332;65.33508301
71551;DHT22;59367;48.414;9.872;2022-11-20T05:29:30;4.953842163;65.49377441
71551;DHT22;59367;48.414;9.872;2022-11-20T05:30:36;4.967193604;65.58990479
71551;DHT22;59367;48.414;9.872;2022-11-20T05:31:43;4.953842163;65.55938721
71551;DHT22;59367;48.414;9.872;2022-11-20T05:32:50;4.953842163;65.48461914
71551;DHT22;59367;48.414;9.872;2022-11-20T05:33:56;4.953842163;65.46630859
71551;DHT22;59367;48.414;9.872;2022-11-20T05:35:02;4.927139282;65.57617188
71551;DHT22;59367;48.414;9.872;2022-11-20T05:36:11;4.911117554;65.56243896
71551;DHT22;59367;48.414;9.872;2022-11-20T05:37:18;4.927139282;65.63110352
71551;DHT22;59367;48.414;9.872;2022-11-20T05:38:24;4.940490723;65.71044922
71551;DHT22;59367;48.414;9.872;2022-11-20T05:39:29;4.911117554;65.75164795
71551;DHT22;59367;48.414;9.872;2022-11-20T05:40:35;4.927139282;65.85998535
71551;DHT22;59367;48.414;9.872;2022-11-20T05:41:41;4.897766113;65.98815918
71551;DHT22;59367;48.414;9.872;2022-11-20T05:42:48;4.897766113;66.03546143
71551;DHT22;59367;48.414;9.872;2022-11-20T05:43:55;4.897766113;65.99884033
71551;DHT22;59367;48.414;9.872;2022-11-20T05:45:03;4.911117554;66.1529541
71551;DHT22;59367;48.414;9.872;2022-11-20T05:46:12;4.884414673;66.34063721
71551;DHT22;59367;48.414;9.872;2022-11-20T05:47:18;4.841686249;66.44592285
71551;DHT22;59367;48.414;9.872;2022-11-20T05:48:25;4.871059418;66.53747559
71551;DHT22;59367;48.414;9.872;2022-11-20T05:49:32;4.884414673;66.67175293
71551;DHT22;59367;48.414;9.872;2022-11-20T05:50:39;4.884414673;66.86401367
71551;DHT22;59367;48.414;9.872;2022-11-20T05:51:44;4.884414673;67.04559326
71551;DHT22;59367;48.414;9.872;2022-11-20T05:52:51;4.897766113;67.16156006
71551;DHT22;59367;48.414;9.872;2022-11-20T05:53:59;4.927139282;67.23327637
71551;DHT22;59367;48.414;9.872;2022-11-20T05:55:05;4.927139282;67.38433838
71551;DHT22;59367;48.414;9.872;2022-11-20T05:56:13;4.967193604;67.36297607
71551;DHT22;59367;48.414;9.872;2022-11-20T05:57:19;4.940490723;67.37060547